Pagrindinis puslapis
METAR-TAF:

METAR-TAF

Oro uostai :

Čita, Rusija

platuma: 52-05N, ilguma: 113-29E, Aukštis: 685 m

Dabartinis oras

Ataskaita buvo paskelbta 39 minutes, ne 14:30 UTC
Vėjas 2 kt iš Šiaurės
Temperatūra 12°C
Drėgmė 88%
Slėgis 1005 hPa
Matomumas 10 km arba daugiau

METAR: UIAA 051430Z AUTO 35001MPS 9999 NCD 12/10 Q1005 RMK QFE696/0928

Laikas: 00:09 (15:09 UTC)

Prognozė

Ataskaita buvo paskelbta 1 valandą ir 9 minutes, ne 14:00 UTC
Prognozė galioja nuo 05 metu 15 UTC su 06 metu 15 UTC
Vėjas 6 kt iš Šiaurės
Matomumas: 3100 m
Mažai debesys ne aukštis 500 ft
Su prošvaistėmis ne aukštis 1400 ft, Liūtiniai kamuoliniai debesys.
rūkana
Laikinai
nuo 05 metu 18 UTC su 06 metu 02 UTC
Matomumas: 0500 m
ne aukštis 100 ft
rūkas
Nuo 06 metu 0300 UTC
Vėjas 10 kt iš Rytų/Šiaurės Rytų
Matomumas 10 km arba daugiau
Išsisklaidę debesys ne aukštis 4000 ft, Liūtiniai kamuoliniai debesys.

TAF: UIAA 051400Z 0515/0615 36003MPS 3100 BR FEW005 BKN014CB TEMPO 0518/0602 0500 FG VV001 FM060300 06005MPS 9999 SCT040CB

Orai ataskaitas ir orų prognozės (METAR, TAF).

turimą stotys yra geltonos ir raudonos taškus žemėlapyje.

Perkelti pele per norėdami pamatyti stoties vardą.

Tada spustelėkite, norėdami matyti oro stebėjimo ir prognozės.

Norėdami pakeisti žemėlapį: spustelėkite ant žalios mygtukų su juodo kryžiaus žemyn,; žalią mygtuką su brūkšneliu, jei norite nutolinti; arba žalių rodyklių gretimoms žemėlapius.


METAR-TAF: